sensor_id;sensor_type;location;lat;lon;timestamp;pressure;altitude;pressure_sealevel;temperature;humidity
25944;BME280;13742;49.306;8.636;2023-08-07T00:00:45;100292.78;;;13.83;99.65
25944;BME280;13742;49.306;8.636;2023-08-07T00:01:45;100290.32;;;13.80;98.53
25944;BME280;13742;49.306;8.636;2023-08-07T00:02:45;100290.97;;;13.79;98.50
25944;BME280;13742;49.306;8.636;2023-08-07T00:03:45;100290.86;;;13.79;98.32
25944;BME280;13742;49.306;8.636;2023-08-07T00:04:45;100294.55;;;13.77;98.00
25944;BME280;13742;49.306;8.636;2023-08-07T00:05:45;100289.91;;;13.72;98.01
25944;BME280;13742;49.306;8.636;2023-08-07T00:06:45;100293.95;;;13.73;97.67
25944;BME280;13742;49.306;8.636;2023-08-07T00:07:45;100295.19;;;13.74;97.73
25944;BME280;13742;49.306;8.636;2023-08-07T00:08:45;100293.56;;;13.72;97.50
25944;BME280;13742;49.306;8.636;2023-08-07T00:09:45;100296.33;;;13.72;97.29
25944;BME280;13742;49.306;8.636;2023-08-07T00:10:45;100292.27;;;13.71;96.75
25944;BME280;13742;49.306;8.636;2023-08-07T00:11:45;100294.54;;;13.70;96.62
25944;BME280;13742;49.306;8.636;2023-08-07T00:12:45;100295.37;;;13.70;96.86
25944;BME280;13742;49.306;8.636;2023-08-07T00:13:45;100292.80;;;13.70;96.71
25944;BME280;13742;49.306;8.636;2023-08-07T00:14:46;100292.88;;;13.70;97.18
25944;BME280;13742;49.306;8.636;2023-08-07T00:15:45;100288.86;;;13.72;97.55
25944;BME280;13742;49.306;8.636;2023-08-07T00:16:45;100293.70;;;13.70;96.72
25944;BME280;13742;49.306;8.636;2023-08-07T00:17:45;100288.19;;;13.71;96.58
25944;BME280;13742;49.306;8.636;2023-08-07T00:18:45;100294.28;;;13.72;96.72
25944;BME280;13742;49.306;8.636;2023-08-07T00:19:45;100291.78;;;13.71;96.17
25944;BME280;13742;49.306;8.636;2023-08-07T00:20:45;100289.46;;;13.71;96.61
25944;BME280;13742;49.306;8.636;2023-08-07T00:21:45;100291.02;;;13.73;97.16
25944;BME280;13742;49.306;8.636;2023-08-07T00:22:45;100289.59;;;13.74;96.87
25944;BME280;13742;49.306;8.636;2023-08-07T00:23:45;100289.67;;;13.76;97.03
25944;BME280;13742;49.306;8.636;2023-08-07T00:24:45;100288.22;;;13.75;97.23
25944;BME280;13742;49.306;8.636;2023-08-07T00:25:45;100290.84;;;13.77;97.47
25944;BME280;13742;49.306;8.636;2023-08-07T00:26:45;100290.03;;;13.75;96.53
25944;BME280;13742;49.306;8.636;2023-08-07T00:27:45;100289.05;;;13.74;96.33
25944;BME280;13742;49.306;8.636;2023-08-07T00:28:45;100290.48;;;13.74;95.99
25944;BME280;13742;49.306;8.636;2023-08-07T00:29:45;100289.97;;;13.72;95.93
25944;BME280;13742;49.306;8.636;2023-08-07T00:30:45;100285.54;;;13.72;96.06
25944;BME280;13742;49.306;8.636;2023-08-07T00:31:45;100287.41;;;13.71;95.76
25944;BME280;13742;49.306;8.636;2023-08-07T00:32:45;100288.26;;;13.73;96.11
25944;BME280;13742;49.306;8.636;2023-08-07T00:33:45;100287.77;;;13.73;96.04
25944;BME280;13742;49.306;8.636;2023-08-07T00:34:45;100285.46;;;13.75;96.22
25944;BME280;13742;49.306;8.636;2023-08-07T00:35:45;100289.67;;;13.76;96.17
25944;BME280;13742;49.306;8.636;2023-08-07T00:36:45;100289.61;;;13.75;96.50
25944;BME280;13742;49.306;8.636;2023-08-07T00:37:45;100286.77;;;13.69;94.77
25944;BME280;13742;49.306;8.636;2023-08-07T00:38:45;100287.11;;;13.68;94.85
25944;BME280;13742;49.306;8.636;2023-08-07T00:39:45;100292.79;;;13.67;94.90
25944;BME280;13742;49.306;8.636;2023-08-07T00:40:45;100289.88;;;13.70;95.19
25944;BME280;13742;49.306;8.636;2023-08-07T00:41:45;100291.07;;;13.68;94.69
25944;BME280;13742;49.306;8.636;2023-08-07T00:42:45;100291.36;;;13.67;94.61
25944;BME280;13742;49.306;8.636;2023-08-07T00:43:45;100287.79;;;13.66;94.69
25944;BME280;13742;49.306;8.636;2023-08-07T00:44:45;100288.48;;;13.67;94.93
25944;BME280;13742;49.306;8.636;2023-08-07T00:45:45;100289.47;;;13.66;94.61
25944;BME280;13742;49.306;8.636;2023-08-07T00:46:45;100289.24;;;13.66;94.80
25944;BME280;13742;49.306;8.636;2023-08-07T00:47:45;100293.13;;;13.69;94.82
25944;BME280;13742;49.306;8.636;2023-08-07T00:48:45;100295.86;;;13.66;94.41
25944;BME280;13742;49.306;8.636;2023-08-07T00:49:45;100292.50;;;13.67;94.63
25944;BME280;13742;49.306;8.636;2023-08-07T00:50:45;100291.89;;;13.65;94.11
25944;BME280;13742;49.306;8.636;2023-08-07T00:51:45;100295.38;;;13.65;94.61
25944;BME280;13742;49.306;8.636;2023-08-07T00:52:45;100298.35;;;13.66;93.75
25944;BME280;13742;49.306;8.636;2023-08-07T00:53:45;100295.14;;;13.65;93.99
25944;BME280;13742;49.306;8.636;2023-08-07T00:54:45;100296.55;;;13.66;94.29
25944;BME280;13742;49.306;8.636;2023-08-07T00:55:45;100295.28;;;13.67;94.47
25944;BME280;13742;49.306;8.636;2023-08-07T00:56:45;100297.33;;;13.67;93.89
25944;BME280;13742;49.306;8.636;2023-08-07T00:57:45;100295.26;;;13.66;93.71
25944;BME280;13742;49.306;8.636;2023-08-07T00:58:45;100293.52;;;13.67;94.24
25944;BME280;13742;49.306;8.636;2023-08-07T00:59:45;100299.77;;;13.70;94.52
25944;BME280;13742;49.306;8.636;2023-08-07T01:00:45;100298.48;;;13.67;94.00
25944;BME280;13742;49.306;8.636;2023-08-07T01:01:45;100289.75;;;13.68;94.34
25944;BME280;13742;49.306;8.636;2023-08-07T01:02:45;100292.23;;;13.68;93.89
25944;BME280;13742;49.306;8.636;2023-08-07T01:03:45;100296.30;;;13.69;94.69
25944;BME280;13742;49.306;8.636;2023-08-07T01:04:45;100296.00;;;13.68;94.25
25944;BME280;13742;49.306;8.636;2023-08-07T01:05:45;100296.66;;;13.67;94.10
25944;BME280;13742;49.306;8.636;2023-08-07T01:06:45;100294.02;;;13.67;94.39
25944;BME280;13742;49.306;8.636;2023-08-07T01:07:46;100298.55;;;13.69;94.34
25944;BME280;13742;49.306;8.636;2023-08-07T01:08:45;100295.80;;;13.70;94.39
25944;BME280;13742;49.306;8.636;2023-08-07T01:09:45;100295.08;;;13.69;93.88
25944;BME280;13742;49.306;8.636;2023-08-07T01:10:49;100296.05;;;13.66;93.42
25944;BME280;13742;49.306;8.636;2023-08-07T01:11:48;100294.51;;;13.67;93.67
25944;BME280;13742;49.306;8.636;2023-08-07T01:12:47;100296.77;;;13.66;93.81
25944;BME280;13742;49.306;8.636;2023-08-07T01:13:48;100290.63;;;13.66;94.08
25944;BME280;13742;49.306;8.636;2023-08-07T01:15:45;100294.67;;;13.63;93.10
25944;BME280;13742;49.306;8.636;2023-08-07T01:16:48;100294.41;;;13.64;93.23
25944;BME280;13742;49.306;8.636;2023-08-07T01:17:45;100294.24;;;13.64;93.46
25944;BME280;13742;49.306;8.636;2023-08-07T01:18:45;100299.09;;;13.62;93.08
25944;BME280;13742;49.306;8.636;2023-08-07T01:19:45;100299.58;;;13.62;93.17
25944;BME280;13742;49.306;8.636;2023-08-07T01:20:45;100300.48;;;13.63;92.94
25944;BME280;13742;49.306;8.636;2023-08-07T01:21:47;100302.67;;;13.65;93.17
25944;BME280;13742;49.306;8.636;2023-08-07T01:22:45;100299.33;;;13.62;92.61
25944;BME280;13742;49.306;8.636;2023-08-07T01:23:46;100301.26;;;13.62;92.64
25944;BME280;13742;49.306;8.636;2023-08-07T01:24:45;100304.39;;;13.61;92.02
25944;BME280;13742;49.306;8.636;2023-08-07T01:25:46;100304.20;;;13.59;92.22
25944;BME280;13742;49.306;8.636;2023-08-07T01:26:45;100304.16;;;13.61;92.68
25944;BME280;13742;49.306;8.636;2023-08-07T01:27:46;100302.84;;;13.61;92.80
25944;BME280;13742;49.306;8.636;2023-08-07T01:29:06;100308.60;;;13.62;92.21
25944;BME280;13742;49.306;8.636;2023-08-07T01:30:48;100303.81;;;13.59;91.97
25944;BME280;13742;49.306;8.636;2023-08-07T01:31:45;100306.44;;;13.60;92.24
25944;BME280;13742;49.306;8.636;2023-08-07T01:32:47;100309.09;;;13.61;92.12
25944;BME280;13742;49.306;8.636;2023-08-07T01:33:48;100305.70;;;13.59;92.06
25944;BME280;13742;49.306;8.636;2023-08-07T01:34:45;100309.32;;;13.61;91.93
25944;BME280;13742;49.306;8.636;2023-08-07T01:35:49;100307.19;;;13.59;91.44
25944;BME280;13742;49.306;8.636;2023-08-07T01:36:45;100302.95;;;13.60;91.78
25944;BME280;13742;49.306;8.636;2023-08-07T01:37:45;100305.39;;;13.62;91.69
25944;BME280;13742;49.306;8.636;2023-08-07T01:38:45;100303.27;;;13.60;91.53
25944;BME280;13742;49.306;8.636;2023-08-07T01:39:45;100307.13;;;13.59;91.18
25944;BME280;13742;49.306;8.636;2023-08-07T01:40:45;100306.56;;;13.58;91.44
25944;BME280;13742;49.306;8.636;2023-08-07T01:41:45;100309.88;;;13.58;90.80
25944;BME280;13742;49.306;8.636;2023-08-07T01:42:45;100310.50;;;13.58;90.56
25944;BME280;13742;49.306;8.636;2023-08-07T01:43:45;100311.39;;;13.59;90.99
25944;BME280;13742;49.306;8.636;2023-08-07T01:44:45;100311.19;;;13.61;91.27
25944;BME280;13742;49.306;8.636;2023-08-07T01:45:45;100313.40;;;13.61;91.53
25944;BME280;13742;49.306;8.636;2023-08-07T01:46:45;100314.16;;;13.59;90.31
25944;BME280;13742;49.306;8.636;2023-08-07T01:47:44;100309.30;;;13.60;90.85
25944;BME280;13742;49.306;8.636;2023-08-07T01:48:44;100312.56;;;13.60;90.65
25944;BME280;13742;49.306;8.636;2023-08-07T01:49:44;100314.03;;;13.58;90.10
25944;BME280;13742;49.306;8.636;2023-08-07T01:50:45;100314.02;;;13.57;89.43
25944;BME280;13742;49.306;8.636;2023-08-07T01:51:44;100316.18;;;13.57;89.14
25944;BME280;13742;49.306;8.636;2023-08-07T01:52:45;100316.22;;;13.56;89.00
25944;BME280;13742;49.306;8.636;2023-08-07T01:53:45;100314.64;;;13.56;89.23
25944;BME280;13742;49.306;8.636;2023-08-07T01:54:45;100317.25;;;13.59;89.79
25944;BME280;13742;49.306;8.636;2023-08-07T01:55:44;100319.67;;;13.58;88.97
25944;BME280;13742;49.306;8.636;2023-08-07T01:56:44;100312.98;;;13.58;88.47
25944;BME280;13742;49.306;8.636;2023-08-07T01:57:45;100315.31;;;13.58;88.49
25944;BME280;13742;49.306;8.636;2023-08-07T01:58:44;100315.80;;;13.58;89.05
25944;BME280;13742;49.306;8.636;2023-08-07T01:59:45;100318.89;;;13.57;87.80
25944;BME280;13742;49.306;8.636;2023-08-07T02:00:45;100315.58;;;13.58;88.19
25944;BME280;13742;49.306;8.636;2023-08-07T02:01:44;100317.02;;;13.57;88.36
25944;BME280;13742;49.306;8.636;2023-08-07T02:02:46;100317.67;;;13.57;87.85
25944;BME280;13742;49.306;8.636;2023-08-07T02:03:44;100319.00;;;13.57;88.17
25944;BME280;13742;49.306;8.636;2023-08-07T02:04:45;100318.94;;;13.57;88.20
25944;BME280;13742;49.306;8.636;2023-08-07T02:05:47;100320.16;;;13.57;88.25
25944;BME280;13742;49.306;8.636;2023-08-07T02:06:44;100319.69;;;13.59;88.83
25944;BME280;13742;49.306;8.636;2023-08-07T02:07:44;100317.87;;;13.60;88.69
25944;BME280;13742;49.306;8.636;2023-08-07T02:08:44;100317.28;;;13.57;87.72
25944;BME280;13742;49.306;8.636;2023-08-07T02:09:44;100318.62;;;13.56;87.90
25944;BME280;13742;49.306;8.636;2023-08-07T02:10:45;100319.52;;;13.57;88.21
25944;BME280;13742;49.306;8.636;2023-08-07T02:11:45;100322.77;;;13.56;88.00
25944;BME280;13742;49.306;8.636;2023-08-07T02:12:45;100322.20;;;13.55;87.78
25944;BME280;13742;49.306;8.636;2023-08-07T02:13:44;100319.94;;;13.57;87.69
25944;BME280;13742;49.306;8.636;2023-08-07T02:14:44;100318.62;;;13.56;87.95
25944;BME280;13742;49.306;8.636;2023-08-07T02:15:45;100321.34;;;13.57;88.11
25944;BME280;13742;49.306;8.636;2023-08-07T02:16:44;100319.90;;;13.58;87.57
25944;BME280;13742;49.306;8.636;2023-08-07T02:17:45;100319.72;;;13.57;87.64
25944;BME280;13742;49.306;8.636;2023-08-07T02:18:44;100325.47;;;13.57;87.15
25944;BME280;13742;49.306;8.636;2023-08-07T02:19:45;100322.56;;;13.58;87.32
25944;BME280;13742;49.306;8.636;2023-08-07T02:20:46;100328.88;;;13.60;87.81
25944;BME280;13742;49.306;8.636;2023-08-07T02:21:44;100326.88;;;13.59;87.26
25944;BME280;13742;49.306;8.636;2023-08-07T02:22:44;100329.21;;;13.60;87.30
25944;BME280;13742;49.306;8.636;2023-08-07T02:23:44;100329.77;;;13.61;87.12
25944;BME280;13742;49.306;8.636;2023-08-07T02:24:45;100328.61;;;13.59;86.56
25944;BME280;13742;49.306;8.636;2023-08-07T02:25:45;100328.81;;;13.60;86.44
25944;BME280;13742;49.306;8.636;2023-08-07T02:26:44;100329.38;;;13.60;86.26
25944;BME280;13742;49.306;8.636;2023-08-07T02:27:44;100330.20;;;13.60;86.23
25944;BME280;13742;49.306;8.636;2023-08-07T02:28:44;100331.08;;;13.60;86.79
25944;BME280;13742;49.306;8.636;2023-08-07T02:29:44;100329.98;;;13.60;86.43
25944;BME280;13742;49.306;8.636;2023-08-07T02:30:46;100324.95;;;13.59;86.57
25944;BME280;13742;49.306;8.636;2023-08-07T02:31:44;100324.33;;;13.59;86.18
25944;BME280;13742;49.306;8.636;2023-08-07T02:32:46;100327.20;;;13.59;86.08
25944;BME280;13742;49.306;8.636;2023-08-07T02:33:44;100324.29;;;13.59;86.06
25944;BME280;13742;49.306;8.636;2023-08-07T02:34:45;100323.45;;;13.60;86.62
25944;BME280;13742;49.306;8.636;2023-08-07T02:35:45;100328.34;;;13.60;86.79
25944;BME280;13742;49.306;8.636;2023-08-07T02:36:44;100329.34;;;13.60;86.24
25944;BME280;13742;49.306;8.636;2023-08-07T02:37:45;100330.50;;;13.60;86.66
25944;BME280;13742;49.306;8.636;2023-08-07T02:38:44;100329.93;;;13.59;86.74
25944;BME280;13742;49.306;8.636;2023-08-07T02:39:44;100331.14;;;13.59;86.56
25944;BME280;13742;49.306;8.636;2023-08-07T02:40:44;100330.66;;;13.60;86.76
25944;BME280;13742;49.306;8.636;2023-08-07T02:41:44;100336.20;;;13.57;85.98
25944;BME280;13742;49.306;8.636;2023-08-07T02:42:44;100331.36;;;13.58;86.50
25944;BME280;13742;49.306;8.636;2023-08-07T02:43:45;100334.97;;;13.60;86.72
25944;BME280;13742;49.306;8.636;2023-08-07T02:44:44;100335.89;;;13.59;86.37
25944;BME280;13742;49.306;8.636;2023-08-07T02:45:44;100334.73;;;13.59;86.32
25944;BME280;13742;49.306;8.636;2023-08-07T02:46:44;100340.33;;;13.60;86.38
25944;BME280;13742;49.306;8.636;2023-08-07T02:47:44;100336.97;;;13.60;86.99
25944;BME280;13742;49.306;8.636;2023-08-07T02:48:45;100335.47;;;13.61;86.86
25944;BME280;13742;49.306;8.636;2023-08-07T02:49:44;100337.80;;;13.62;86.95
25944;BME280;13742;49.306;8.636;2023-08-07T02:50:44;100338.16;;;13.62;86.90
25944;BME280;13742;49.306;8.636;2023-08-07T02:51:44;100339.11;;;13.60;86.51
25944;BME280;13742;49.306;8.636;2023-08-07T02:52:44;100340.24;;;13.58;86.17
25944;BME280;13742;49.306;8.636;2023-08-07T02:53:44;100338.66;;;13.58;86.42
25944;BME280;13742;49.306;8.636;2023-08-07T02:54:44;100340.63;;;13.57;86.37
25944;BME280;13742;49.306;8.636;2023-08-07T02:55:44;100341.52;;;13.56;86.73
25944;BME280;13742;49.306;8.636;2023-08-07T02:56:44;100334.22;;;13.58;86.91
25944;BME280;13742;49.306;8.636;2023-08-07T02:57:44;100336.05;;;13.58;86.87
25944;BME280;13742;49.306;8.636;2023-08-07T02:58:44;100333.95;;;13.57;86.68
25944;BME280;13742;49.306;8.636;2023-08-07T02:59:45;100335.77;;;13.57;86.85
25944;BME280;13742;49.306;8.636;2023-08-07T03:00:44;100337.78;;;13.55;86.54
25944;BME280;13742;49.306;8.636;2023-08-07T03:01:44;100337.59;;;13.57;86.56
25944;BME280;13742;49.306;8.636;2023-08-07T03:02:44;100338.58;;;13.57;86.35
25944;BME280;13742;49.306;8.636;2023-08-07T03:03:44;100340.25;;;13.57;86.40
25944;BME280;13742;49.306;8.636;2023-08-07T03:04:44;100341.81;;;13.58;86.70
25944;BME280;13742;49.306;8.636;2023-08-07T03:05:48;100340.70;;;13.55;86.46
25944;BME280;13742;49.306;8.636;2023-08-07T03:06:44;100341.64;;;13.54;86.67
25944;BME280;13742;49.306;8.636;2023-08-07T03:07:44;100344.24;;;13.54;86.87
25944;BME280;13742;49.306;8.636;2023-08-07T03:08:44;100343.61;;;13.52;86.33
25944;BME280;13742;49.306;8.636;2023-08-07T03:09:45;100343.43;;;13.51;85.79
25944;BME280;13742;49.306;8.636;2023-08-07T03:11:44;100345.38;;;13.51;85.89
25944;BME280;13742;49.306;8.636;2023-08-07T03:12:44;100347.98;;;13.52;86.45
25944;BME280;13742;49.306;8.636;2023-08-07T03:13:44;100345.72;;;13.53;86.27
25944;BME280;13742;49.306;8.636;2023-08-07T03:14:44;100345.16;;;13.53;86.13
25944;BME280;13742;49.306;8.636;2023-08-07T03:15:44;100345.73;;;13.54;85.55
25944;BME280;13742;49.306;8.636;2023-08-07T03:16:45;100347.80;;;13.55;85.52
25944;BME280;13742;49.306;8.636;2023-08-07T03:17:44;100350.72;;;13.54;85.54
25944;BME280;13742;49.306;8.636;2023-08-07T03:18:45;100349.30;;;13.52;85.04
25944;BME280;13742;49.306;8.636;2023-08-07T03:19:44;100350.96;;;13.52;85.45
25944;BME280;13742;49.306;8.636;2023-08-07T03:20:44;100352.06;;;13.52;86.07
25944;BME280;13742;49.306;8.636;2023-08-07T03:21:44;100356.55;;;13.52;85.90
25944;BME280;13742;49.306;8.636;2023-08-07T03:22:44;100351.80;;;13.53;85.72
25944;BME280;13742;49.306;8.636;2023-08-07T03:23:44;100354.89;;;13.52;85.78
25944;BME280;13742;49.306;8.636;2023-08-07T03:24:47;100351.83;;;13.51;85.54
25944;BME280;13742;49.306;8.636;2023-08-07T03:25:44;100348.78;;;13.50;85.01
25944;BME280;13742;49.306;8.636;2023-08-07T03:26:47;100353.08;;;13.49;85.26
25944;BME280;13742;49.306;8.636;2023-08-07T03:27:44;100353.92;;;13.50;85.71
25944;BME280;13742;49.306;8.636;2023-08-07T03:28:46;100356.09;;;13.51;85.59
25944;BME280;13742;49.306;8.636;2023-08-07T03:29:44;100354.09;;;13.50;85.47
25944;BME280;13742;49.306;8.636;2023-08-07T03:30:44;100353.90;;;13.52;85.90
25944;BME280;13742;49.306;8.636;2023-08-07T03:31:44;100352.73;;;13.52;85.21
25944;BME280;13742;49.306;8.636;2023-08-07T03:32:44;100351.66;;;13.50;85.10
25944;BME280;13742;49.306;8.636;2023-08-07T03:33:44;100348.13;;;13.51;85.43
25944;BME280;13742;49.306;8.636;2023-08-07T03:34:44;100350.80;;;13.52;85.32
25944;BME280;13742;49.306;8.636;2023-08-07T03:35:45;100350.36;;;13.52;84.96
25944;BME280;13742;49.306;8.636;2023-08-07T03:36:45;100353.27;;;13.51;84.57
25944;BME280;13742;49.306;8.636;2023-08-07T03:37:44;100347.70;;;13.52;84.82
25944;BME280;13742;49.306;8.636;2023-08-07T03:38:45;100351.91;;;13.52;84.51
25944;BME280;13742;49.306;8.636;2023-08-07T03:39:47;100351.45;;;13.51;84.22
25944;BME280;13742;49.306;8.636;2023-08-07T03:40:44;100347.08;;;13.51;84.79
25944;BME280;13742;49.306;8.636;2023-08-07T03:41:44;100351.95;;;13.51;84.48
25944;BME280;13742;49.306;8.636;2023-08-07T03:42:44;100358.86;;;13.51;84.38
25944;BME280;13742;49.306;8.636;2023-08-07T03:43:45;100357.89;;;13.53;84.42
25944;BME280;13742;49.306;8.636;2023-08-07T03:44:44;100354.29;;;13.53;84.68
25944;BME280;13742;49.306;8.636;2023-08-07T03:45:44;100356.84;;;13.54;84.38
25944;BME280;13742;49.306;8.636;2023-08-07T03:46:44;100356.21;;;13.52;83.98
25944;BME280;13742;49.306;8.636;2023-08-07T03:47:44;100359.61;;;13.54;84.08
25944;BME280;13742;49.306;8.636;2023-08-07T03:48:44;100355.08;;;13.54;84.44
25944;BME280;13742;49.306;8.636;2023-08-07T03:49:45;100358.45;;;13.54;84.01
25944;BME280;13742;49.306;8.636;2023-08-07T03:50:45;100356.73;;;13.53;83.38
25944;BME280;13742;49.306;8.636;2023-08-07T03:51:44;100355.77;;;13.52;83.17
25944;BME280;13742;49.306;8.636;2023-08-07T03:52:44;100357.99;;;13.53;83.33
25944;BME280;13742;49.306;8.636;2023-08-07T03:53:44;100359.63;;;13.54;83.62
25944;BME280;13742;49.306;8.636;2023-08-07T03:54:45;100357.02;;;13.54;83.48
25944;BME280;13742;49.306;8.636;2023-08-07T03:55:49;100358.18;;;13.54;82.88
25944;BME280;13742;49.306;8.636;2023-08-07T03:56:46;100359.39;;;13.54;83.41
25944;BME280;13742;49.306;8.636;2023-08-07T03:57:44;100359.08;;;13.55;83.38
25944;BME280;13742;49.306;8.636;2023-08-07T03:58:44;100358.58;;;13.55;83.49
25944;BME280;13742;49.306;8.636;2023-08-07T03:59:45;100358.47;;;13.54;83.28
25944;BME280;13742;49.306;8.636;2023-08-07T04:00:44;100362.97;;;13.53;83.43
25944;BME280;13742;49.306;8.636;2023-08-07T04:01:44;100362.26;;;13.53;83.15
25944;BME280;13742;49.306;8.636;2023-08-07T04:02:44;100363.20;;;13.53;83.45
25944;BME280;13742;49.306;8.636;2023-08-07T04:03:46;100362.41;;;13.52;83.76
25944;BME280;13742;49.306;8.636;2023-08-07T04:04:44;100358.91;;;13.51;83.71
25944;BME280;13742;49.306;8.636;2023-08-07T04:05:44;100360.12;;;13.50;83.93
25944;BME280;13742;49.306;8.636;2023-08-07T04:06:44;100361.39;;;13.50;84.40
25944;BME280;13742;49.306;8.636;2023-08-07T04:07:44;100363.35;;;13.52;84.13
25944;BME280;13742;49.306;8.636;2023-08-07T04:08:45;100361.18;;;13.51;84.43
25944;BME280;13742;49.306;8.636;2023-08-07T04:09:44;100359.30;;;13.51;84.44
25944;BME280;13742;49.306;8.636;2023-08-07T04:10:44;100365.77;;;13.51;84.25
25944;BME280;13742;49.306;8.636;2023-08-07T04:11:44;100364.52;;;13.52;84.45
25944;BME280;13742;49.306;8.636;2023-08-07T04:12:44;100363.57;;;13.52;84.50
25944;BME280;13742;49.306;8.636;2023-08-07T04:13:44;100359.40;;;13.50;84.39
25944;BME280;13742;49.306;8.636;2023-08-07T04:14:44;100363.17;;;13.51;84.90
25944;BME280;13742;49.306;8.636;2023-08-07T04:15:44;100362.61;;;13.51;84.89
25944;BME280;13742;49.306;8.636;2023-08-07T04:16:45;100364.71;;;13.50;84.74
25944;BME280;13742;49.306;8.636;2023-08-07T04:17:44;100367.13;;;13.49;84.72
25944;BME280;13742;49.306;8.636;2023-08-07T04:18:44;100368.52;;;13.49;84.57
25944;BME280;13742;49.306;8.636;2023-08-07T04:19:44;100373.71;;;13.49;84.56
25944;BME280;13742;49.306;8.636;2023-08-07T04:21:44;100370.05;;;13.48;85.00
25944;BME280;13742;49.306;8.636;2023-08-07T04:22:45;100371.18;;;13.50;85.21
25944;BME280;13742;49.306;8.636;2023-08-07T04:23:44;100373.61;;;13.50;85.43
25944;BME280;13742;49.306;8.636;2023-08-07T04:24:44;100375.55;;;13.51;86.05
25944;BME280;13742;49.306;8.636;2023-08-07T04:25:45;100371.91;;;13.51;85.64
25944;BME280;13742;49.306;8.636;2023-08-07T04:26:44;100373.58;;;13.52;85.96
25944;BME280;13742;49.306;8.636;2023-08-07T04:27:44;100376.22;;;13.51;86.13
25944;BME280;13742;49.306;8.636;2023-08-07T04:28:44;100374.97;;;13.52;86.13
25944;BME280;13742;49.306;8.636;2023-08-07T04:29:44;100372.67;;;13.50;86.36
25944;BME280;13742;49.306;8.636;2023-08-07T04:30:47;100374.77;;;13.50;86.59
25944;BME280;13742;49.306;8.636;2023-08-07T04:31:44;100373.22;;;13.50;86.72
25944;BME280;13742;49.306;8.636;2023-08-07T04:32:45;100375.05;;;13.50;86.78
25944;BME280;13742;49.306;8.636;2023-08-07T04:33:44;100380.77;;;13.52;87.06
25944;BME280;13742;49.306;8.636;2023-08-07T04:34:44;100378.47;;;13.49;86.95
25944;BME280;13742;49.306;8.636;2023-08-07T04:35:46;100376.76;;;13.49;86.82
25944;BME280;13742;49.306;8.636;2023-08-07T04:36:44;100382.78;;;13.49;86.94
25944;BME280;13742;49.306;8.636;2023-08-07T04:37:44;100379.94;;;13.47;86.84
25944;BME280;13742;49.306;8.636;2023-08-07T04:38:44;100383.66;;;13.48;86.93
25944;BME280;13742;49.306;8.636;2023-08-07T04:39:44;100385.59;;;13.48;87.21
25944;BME280;13742;49.306;8.636;2023-08-07T04:40:48;100387.88;;;13.46;87.04
25944;BME280;13742;49.306;8.636;2023-08-07T04:41:44;100385.44;;;13.45;86.89
25944;BME280;13742;49.306;8.636;2023-08-07T04:42:44;100389.11;;;13.42;86.86
25944;BME280;13742;49.306;8.636;2023-08-07T04:43:44;100393.78;;;13.44;87.08
25944;BME280;13742;49.306;8.636;2023-08-07T04:44:44;100393.00;;;13.44;87.80
25944;BME280;13742;49.306;8.636;2023-08-07T04:45:47;100400.63;;;13.44;87.88
25944;BME280;13742;49.306;8.636;2023-08-07T04:46:44;100400.33;;;13.43;87.16
25944;BME280;13742;49.306;8.636;2023-08-07T04:47:44;100402.84;;;13.44;87.40
25944;BME280;13742;49.306;8.636;2023-08-07T04:48:44;100399.87;;;13.45;87.61
25944;BME280;13742;49.306;8.636;2023-08-07T04:49:44;100397.60;;;13.45;87.44
25944;BME280;13742;49.306;8.636;2023-08-07T04:50:44;100400.63;;;13.44;87.35
25944;BME280;13742;49.306;8.636;2023-08-07T04:51:44;100404.55;;;13.43;87.56
25944;BME280;13742;49.306;8.636;2023-08-07T04:52:44;100405.66;;;13.41;87.45
25944;BME280;13742;49.306;8.636;2023-08-07T04:53:44;100404.80;;;13.41;87.77
25944;BME280;13742;49.306;8.636;2023-08-07T04:54:44;100406.78;;;13.41;87.87
25944;BME280;13742;49.306;8.636;2023-08-07T04:55:45;100406.48;;;13.43;87.96
25944;BME280;13742;49.306;8.636;2023-08-07T04:56:44;100412.36;;;13.44;87.82
25944;BME280;13742;49.306;8.636;2023-08-07T04:57:46;100412.14;;;13.45;88.23
25944;BME280;13742;49.306;8.636;2023-08-07T04:58:44;100409.34;;;13.46;88.27
25944;BME280;13742;49.306;8.636;2023-08-07T04:59:44;100414.44;;;13.47;88.28
25944;BME280;13742;49.306;8.636;2023-08-07T05:00:44;100413.04;;;13.46;88.33
25944;BME280;13742;49.306;8.636;2023-08-07T05:01:44;100411.61;;;13.46;88.40
25944;BME280;13742;49.306;8.636;2023-08-07T05:02:44;100410.97;;;13.48;88.38
25944;BME280;13742;49.306;8.636;2023-08-07T05:03:44;100411.09;;;13.49;88.81
25944;BME280;13742;49.306;8.636;2023-08-07T05:04:44;100410.50;;;13.46;88.68
25944;BME280;13742;49.306;8.636;2023-08-07T05:05:44;100414.00;;;13.47;89.16
25944;BME280;13742;49.306;8.636;2023-08-07T05:06:45;100407.79;;;13.46;89.01
25944;BME280;13742;49.306;8.636;2023-08-07T05:07:44;100411.95;;;13.47;88.85
25944;BME280;13742;49.306;8.636;2023-08-07T05:08:44;100411.70;;;13.49;89.12
25944;BME280;13742;49.306;8.636;2023-08-07T05:09:44;100412.16;;;13.46;88.84
25944;BME280;13742;49.306;8.636;2023-08-07T05:10:44;100413.20;;;13.46;88.89
25944;BME280;13742;49.306;8.636;2023-08-07T05:11:44;100410.07;;;13.47;89.32
25944;BME280;13742;49.306;8.636;2023-08-07T05:12:44;100414.98;;;13.46;88.99
25944;BME280;13742;49.306;8.636;2023-08-07T05:13:44;100413.81;;;13.46;89.46
25944;BME280;13742;49.306;8.636;2023-08-07T05:14:44;100416.77;;;13.47;89.51
25944;BME280;13742;49.306;8.636;2023-08-07T05:15:46;100415.13;;;13.45;89.68
25944;BME280;13742;49.306;8.636;2023-08-07T05:16:44;100416.69;;;13.46;89.57
25944;BME280;13742;49.306;8.636;2023-08-07T05:17:44;100416.44;;;13.48;89.74